createdAt,value
2022-09-30T00:00:13.598Z,16.40
2022-09-30T00:03:01.856Z,16.60
2022-09-30T00:05:30.016Z,18.88
2022-09-30T00:07:58.086Z,19.36
2022-09-30T00:10:26.160Z,18.22
2022-09-30T00:12:54.333Z,17.23
2022-09-30T00:15:22.403Z,16.54
2022-09-30T00:17:50.475Z,16.03
2022-09-30T00:20:19.979Z,16.54
2022-09-30T00:22:48.255Z,18.90
2022-09-30T00:25:16.636Z,19.37
2022-09-30T00:27:44.807Z,18.21
2022-09-30T00:30:12.827Z,17.21
2022-09-30T00:32:40.828Z,16.52
2022-09-30T00:35:09.021Z,16.01
2022-09-30T00:37:37.094Z,16.56
2022-09-30T00:40:05.921Z,18.85
2022-09-30T00:42:33.955Z,19.31
2022-09-30T00:45:08.274Z,18.16
2022-09-30T00:47:57.949Z,17.12
2022-09-30T00:50:47.509Z,16.36
2022-09-30T00:53:37.101Z,16.65
2022-09-30T00:56:11.417Z,19.10
2022-09-30T00:58:53.641Z,19.15
2022-09-30T01:01:23.227Z,17.85
2022-09-30T01:04:00.003Z,16.94
2022-09-30T01:06:29.676Z,16.28
2022-09-30T01:09:01.336Z,16.42
2022-09-30T01:11:29.865Z,18.67
2022-09-30T01:14:02.227Z,19.36
2022-09-30T01:16:45.345Z,18.23
2022-09-30T01:19:27.753Z,17.12
2022-09-30T01:22:19.278Z,16.36
2022-09-30T01:25:25.132Z,16.63
2022-09-30T01:28:09.103Z,19.24
2022-09-30T01:30:37.044Z,18.96
2022-09-30T01:33:36.039Z,17.78
2022-09-30T01:36:25.929Z,16.77
2022-09-30T01:39:19.982Z,16.11
2022-09-30T01:42:35.592Z,16.90
2022-09-30T01:45:16.562Z,19.37
2022-09-30T01:47:50.367Z,18.68
2022-09-30T01:50:30.113Z,17.52
2022-09-30T01:53:28.084Z,16.67
2022-09-30T01:56:06.406Z,16.11
2022-09-30T01:58:56.919Z,17.73
2022-09-30T02:01:49.278Z,19.32
2022-09-30T02:04:24.472Z,18.23
2022-09-30T02:06:57.357Z,17.17
2022-09-30T02:09:33.117Z,16.45
2022-09-30T02:12:06.299Z,16.51
2022-09-30T02:14:42.302Z,18.72
2022-09-30T02:17:30.194Z,19.46
2022-09-30T02:20:10.810Z,18.20
2022-09-30T02:22:46.883Z,17.16
2022-09-30T02:25:27.687Z,16.45
2022-09-30T02:27:59.752Z,16.61
2022-09-30T02:30:28.747Z,18.81
2022-09-30T02:33:04.937Z,19.37
2022-09-30T02:35:41.375Z,18.19
2022-09-30T02:38:19.480Z,17.15
2022-09-30T02:41:06.786Z,16.42
2022-09-30T02:43:35.183Z,16.57
2022-09-30T02:46:23.565Z,18.68
2022-09-30T02:49:09.214Z,19.21
2022-09-30T02:51:37.181Z,17.91
2022-09-30T02:54:18.463Z,16.97
2022-09-30T02:56:51.245Z,16.25
2022-09-30T02:59:20.138Z,16.39
2022-09-30T03:01:48.777Z,18.54
2022-09-30T03:04:22.523Z,19.36
2022-09-30T03:06:51.343Z,18.25
2022-09-30T03:09:24.569Z,17.21
2022-09-30T03:12:01.688Z,16.47
2022-09-30T03:14:37.132Z,16.49
2022-09-30T03:17:05.101Z,18.66
2022-09-30T03:20:00.312Z,19.33
2022-09-30T03:22:31.215Z,17.97
2022-09-30T03:25:44.067Z,16.96
2022-09-30T03:28:33.336Z,16.17
2022-09-30T03:31:13.928Z,17.72
2022-09-30T03:33:53.440Z,19.23
2022-09-30T03:37:06.875Z,18.26
2022-09-30T03:40:10.480Z,16.91
2022-09-30T03:42:54.629Z,16.10
2022-09-30T03:45:31.995Z,17.06
2022-09-30T03:48:05.722Z,19.21
2022-09-30T03:50:37.157Z,18.99
2022-09-30T03:53:12.751Z,17.78
2022-09-30T03:55:48.163Z,16.83
2022-09-30T03:58:19.391Z,16.17
2022-09-30T04:00:53.490Z,16.82
2022-09-30T04:03:23.519Z,19.03
2022-09-30T04:05:51.611Z,19.22
2022-09-30T04:08:19.784Z,18.04
2022-09-30T04:10:47.854Z,17.06
2022-09-30T04:13:15.928Z,16.37
2022-09-30T04:15:43.997Z,16.66
2022-09-30T04:18:12.068Z,18.80
2022-09-30T04:20:40.140Z,19.37
2022-09-30T04:23:08.929Z,18.24
2022-09-30T04:25:37.002Z,17.19
2022-09-30T04:28:05.006Z,16.44
2022-09-30T04:30:33.762Z,16.55
2022-09-30T04:33:02.033Z,18.63
2022-09-30T04:35:30.359Z,19.40
2022-09-30T04:37:58.483Z,18.31
2022-09-30T04:40:26.555Z,17.25
2022-09-30T04:42:58.413Z,16.52
2022-09-30T04:45:26.655Z,16.63
2022-09-30T04:47:54.864Z,18.63
2022-09-30T04:50:22.942Z,19.57
2022-09-30T04:52:51.621Z,18.54
2022-09-30T04:55:20.002Z,17.45
2022-09-30T04:57:50.023Z,16.68
2022-09-30T05:00:18.293Z,16.63
2022-09-30T05:02:47.490Z,18.60
2022-09-30T05:05:15.486Z,19.54
2022-09-30T05:07:44.351Z,18.53
2022-09-30T05:10:13.445Z,17.43
2022-09-30T05:12:41.518Z,16.67
2022-09-30T05:15:10.332Z,16.79
2022-09-30T05:17:38.377Z,18.82
2022-09-30T05:20:11.058Z,19.58
2022-09-30T05:22:39.229Z,18.45
2022-09-30T05:25:08.147Z,17.38
2022-09-30T05:27:36.300Z,16.62
2022-09-30T05:30:06.735Z,17.03
2022-09-30T05:32:35.267Z,19.19
2022-09-30T05:35:03.990Z,19.63
2022-09-30T05:37:32.163Z,18.46
2022-09-30T05:40:01.467Z,17.40
2022-09-30T05:42:33.017Z,16.65
2022-09-30T05:45:01.097Z,16.94
2022-09-30T05:47:29.260Z,19.08
2022-09-30T05:49:57.435Z,19.74
2022-09-30T05:52:25.944Z,18.60
2022-09-30T05:54:54.498Z,17.49
2022-09-30T05:57:22.672Z,16.73
2022-09-30T05:59:51.258Z,17.15
2022-09-30T06:02:19.479Z,19.27
2022-09-30T06:04:47.705Z,19.67
2022-09-30T06:07:15.778Z,18.47
2022-09-30T06:09:43.905Z,17.39
2022-09-30T06:12:12.022Z,16.66
2022-09-30T06:14:40.095Z,17.01
2022-09-30T06:17:08.984Z,19.14
2022-09-30T06:19:37.056Z,19.76
2022-09-30T06:22:05.126Z,18.64
2022-09-30T06:24:33.136Z,17.53
2022-09-30T06:27:01.273Z,16.76
2022-09-30T06:29:29.751Z,17.27
2022-09-30T06:31:57.874Z,19.36
2022-09-30T06:34:26.302Z,19.70
2022-09-30T06:36:54.374Z,18.51
2022-09-30T06:39:22.538Z,17.46
2022-09-30T06:41:50.927Z,16.75
2022-09-30T06:44:25.758Z,17.73
2022-09-30T06:46:54.399Z,19.71
2022-09-30T06:49:22.778Z,19.61
2022-09-30T06:51:51.915Z,18.39
2022-09-30T06:54:21.318Z,17.41
2022-09-30T06:56:49.957Z,17.23
2022-09-30T06:59:18.267Z,19.20
2022-09-30T07:01:46.823Z,20.11
2022-09-30T07:04:15.115Z,19.04
2022-09-30T07:06:43.314Z,17.91
2022-09-30T07:09:12.348Z,17.07
2022-09-30T07:11:40.484Z,17.16
2022-09-30T07:14:10.497Z,19.23
2022-09-30T07:16:38.674Z,20.17
2022-09-30T07:19:08.586Z,19.10
2022-09-30T07:21:36.860Z,17.92
2022-09-30T07:24:05.986Z,17.15
2022-09-30T07:26:34.130Z,18.18
2022-09-30T07:29:02.713Z,20.08
2022-09-30T07:31:35.403Z,19.87
2022-09-30T07:34:09.919Z,18.61
2022-09-30T07:36:40.446Z,17.57
2022-09-30T07:39:11.077Z,17.51
2022-09-30T07:41:40.993Z,19.58
2022-09-30T07:44:14.815Z,20.54
2022-09-30T07:46:44.627Z,19.42
2022-09-30T07:49:24.880Z,18.27
2022-09-30T07:51:56.420Z,17.39
2022-09-30T07:54:28.168Z,18.03
2022-09-30T07:57:09.790Z,20.04
2022-09-30T07:59:41.113Z,20.09
2022-09-30T08:02:17.016Z,18.88
2022-09-30T08:04:45.965Z,17.83
2022-09-30T08:07:16.078Z,17.78
2022-09-30T08:09:44.257Z,19.68
2022-09-30T08:12:12.425Z,20.46
2022-09-30T08:14:40.601Z,19.41
2022-09-30T08:17:08.673Z,18.32
2022-09-30T08:19:36.844Z,17.55
2022-09-30T08:22:06.732Z,18.28
2022-09-30T08:24:35.043Z,20.22
2022-09-30T08:27:03.281Z,20.39
2022-09-30T08:32:19.987Z,18.04
2022-09-30T08:34:48.107Z,17.95
2022-09-30T08:37:16.179Z,19.75
2022-09-30T08:39:44.668Z,20.70
2022-09-30T08:42:47.115Z,19.74
2022-09-30T08:45:54.086Z,18.38
2022-09-30T08:48:53.222Z,18.15
2022-09-30T08:51:35.013Z,20.24
2022-09-30T08:54:10.252Z,20.59
2022-09-30T08:56:38.333Z,19.36
2022-09-30T08:59:27.388Z,18.33
2022-09-30T09:02:20.072Z,18.17
2022-09-30T09:04:52.514Z,20.25
2022-09-30T09:07:55.810Z,21.00
2022-09-30T09:10:44.973Z,19.63
2022-09-30T09:13:31.682Z,18.46
2022-09-30T09:16:23.122Z,18.59
2022-09-30T09:19:12.064Z,20.75
2022-09-30T09:21:54.047Z,20.74
2022-09-30T09:24:28.274Z,19.41
2022-09-30T09:26:59.417Z,18.43
2022-09-30T09:29:49.709Z,19.00
2022-09-30T09:32:19.095Z,20.92
2022-09-30T09:35:02.033Z,20.80
2022-09-30T09:38:04.309Z,19.53
2022-09-30T09:40:35.858Z,18.51
2022-09-30T09:43:13.557Z,19.43
2022-09-30T09:46:18.821Z,21.11
2022-09-30T09:48:47.074Z,20.65
2022-09-30T09:51:28.866Z,19.43
2022-09-30T09:54:01.877Z,18.47
2022-09-30T09:56:33.612Z,19.26
2022-09-30T09:59:09.740Z,20.93
2022-09-30T10:01:41.636Z,21.03
2022-09-30T10:04:18.102Z,19.78
2022-09-30T10:07:01.944Z,18.73
2022-09-30T10:09:38.717Z,19.06
2022-09-30T10:12:06.662Z,20.91
2022-09-30T10:14:47.968Z,21.27
2022-09-30T10:17:33.336Z,20.01
2022-09-30T10:20:16.778Z,18.85
2022-09-30T10:22:45.050Z,19.24
2022-09-30T10:25:23.980Z,20.89
2022-09-30T10:27:59.297Z,21.31
2022-09-30T10:30:46.233Z,20.04
2022-09-30T10:33:20.754Z,18.85
2022-09-30T10:36:06.850Z,19.48
2022-09-30T10:38:37.322Z,21.36
2022-09-30T10:41:06.205Z,21.18
2022-09-30T10:43:45.374Z,19.93
2022-09-30T10:46:26.878Z,18.86
2022-09-30T10:48:57.910Z,19.42
2022-09-30T10:51:36.422Z,21.16
2022-09-30T10:54:05.870Z,21.49
2022-09-30T10:56:43.541Z,20.30
2022-09-30T10:59:39.261Z,19.21
2022-09-30T11:02:14.107Z,19.89
2022-09-30T11:04:58.442Z,21.52
2022-09-30T11:07:29.568Z,21.38
2022-09-30T11:10:04.416Z,20.11
2022-09-30T11:13:10.786Z,19.15
2022-09-30T11:16:20.878Z,20.58
2022-09-30T11:19:32.330Z,21.75
2022-09-30T11:22:37.062Z,20.28
2022-09-30T11:25:10.888Z,19.20
2022-09-30T11:27:55.356Z,20.40
2022-09-30T11:30:55.445Z,21.74
2022-09-30T11:33:33.450Z,20.71
2022-09-30T11:36:52.825Z,19.45
2022-09-30T11:39:45.469Z,19.74
2022-09-30T11:42:49.496Z,21.55
2022-09-30T11:45:51.017Z,21.27
2022-09-30T11:48:44.200Z,19.74
2022-09-30T11:51:21.179Z,19.62
2022-09-30T11:54:16.490Z,21.29
2022-09-30T11:57:03.505Z,21.80
2022-09-30T11:59:43.148Z,20.43
2022-09-30T12:02:40.590Z,19.31
2022-09-30T12:05:18.614Z,20.41
2022-09-30T12:08:07.778Z,21.96
2022-09-30T12:10:54.079Z,21.27
2022-09-30T12:13:26.963Z,19.88
2022-09-30T12:15:57.388Z,19.75
2022-09-30T12:18:44.815Z,21.53
2022-09-30T12:21:22.715Z,21.85
2022-09-30T12:24:03.284Z,20.49
2022-09-30T12:26:32.066Z,19.43
2022-09-30T12:29:34.854Z,20.55
2022-09-30T12:32:47.774Z,22.17
2022-09-30T12:35:25.063Z,20.91
2022-09-30T12:37:56.001Z,19.71
2022-09-30T12:40:52.770Z,20.15
2022-09-30T12:43:46.723Z,22.28
2022-09-30T12:46:17.330Z,21.65
2022-09-30T12:48:54.207Z,20.33
2022-09-30T12:51:24.864Z,19.48
2022-09-30T12:54:11.265Z,20.85
2022-09-30T12:56:43.637Z,22.07
2022-09-30T12:59:13.960Z,20.96
2022-09-30T13:01:43.188Z,19.74
2022-09-30T13:04:32.221Z,19.68
2022-09-30T13:07:00.396Z,21.78
2022-09-30T13:09:34.917Z,22.08
2022-09-30T13:12:02.989Z,20.77
2022-09-30T13:14:45.400Z,19.63
2022-09-30T13:17:16.235Z,19.68
2022-09-30T13:19:49.720Z,21.62
2022-09-30T13:22:39.922Z,21.93
2022-09-30T13:25:16.718Z,20.44
2022-09-30T13:27:46.564Z,19.34
2022-09-30T13:30:17.245Z,20.13
2022-09-30T13:32:59.756Z,21.86
2022-09-30T13:35:46.363Z,21.53
2022-09-30T13:38:14.443Z,20.09
2022-09-30T13:41:03.832Z,19.59
2022-09-30T13:44:07.814Z,21.57
2022-09-30T13:46:50.121Z,22.05
2022-09-30T13:50:02.486Z,20.67
2022-09-30T13:52:35.114Z,19.38
2022-09-30T13:55:20.076Z,20.17
2022-09-30T13:58:09.855Z,21.99
2022-09-30T14:00:54.860Z,21.27
2022-09-30T14:03:38.946Z,19.94
2022-09-30T14:06:27.427Z,19.70
2022-09-30T14:09:20.375Z,21.72
2022-09-30T14:12:23.672Z,21.86
2022-09-30T14:15:22.975Z,20.29
2022-09-30T14:18:19.717Z,19.22
2022-09-30T14:20:59.463Z,20.63
2022-09-30T14:23:28.371Z,21.90
2022-09-30T14:26:22.535Z,21.15
2022-09-30T14:28:58.288Z,19.68
2022-09-30T14:31:26.392Z,19.89
2022-09-30T14:33:56.787Z,21.62
2022-09-30T14:36:31.294Z,21.77
2022-09-30T14:39:01.224Z,20.47
2022-09-30T14:41:30.011Z,19.44
2022-09-30T14:44:08.307Z,20.19
2022-09-30T14:46:41.309Z,21.78
2022-09-30T14:49:15.832Z,21.19
2022-09-30T14:51:49.023Z,19.90
2022-09-30T14:54:18.835Z,19.02
2022-09-30T14:56:48.431Z,20.16
2022-09-30T14:59:27.268Z,21.68
2022-09-30T15:02:00.836Z,21.07
2022-09-30T15:04:39.326Z,19.77
2022-09-30T15:07:11.502Z,18.97
2022-09-30T15:09:43.823Z,20.41
2022-09-30T15:12:15.374Z,21.57
2022-09-30T15:14:53.534Z,20.58
2022-09-30T15:17:30.871Z,19.23
2022-09-30T15:19:59.558Z,19.05
2022-09-30T15:22:29.541Z,20.80
2022-09-30T15:25:00.102Z,21.51
2022-09-30T15:27:31.562Z,20.38
2022-09-30T15:30:02.396Z,19.17
2022-09-30T15:32:34.369Z,19.14
2022-09-30T15:35:15.523Z,21.00
2022-09-30T15:37:44.094Z,21.51
2022-09-30T15:40:36.867Z,20.29
2022-09-30T15:43:11.589Z,19.01
2022-09-30T15:45:44.278Z,18.92
2022-09-30T15:48:25.955Z,20.72
2022-09-30T15:51:02.245Z,21.31
2022-09-30T15:53:36.542Z,20.08
2022-09-30T15:56:26.218Z,18.94
2022-09-30T15:58:57.053Z,18.80
2022-09-30T16:01:37.315Z,20.63
2022-09-30T16:04:17.774Z,21.18
2022-09-30T16:06:59.465Z,19.87
2022-09-30T16:09:36.447Z,18.69
2022-09-30T16:12:05.575Z,18.82
2022-09-30T16:14:43.883Z,20.81
2022-09-30T16:17:27.284Z,21.10
2022-09-30T16:19:57.916Z,19.70
2022-09-30T16:22:41.344Z,18.60
2022-09-30T16:25:32.047Z,19.09
2022-09-30T16:28:15.372Z,21.12
2022-09-30T16:30:49.693Z,20.55
2022-09-30T16:33:18.666Z,19.22
2022-09-30T16:35:47.758Z,18.29
2022-09-30T16:38:18.212Z,19.24
2022-09-30T16:40:46.239Z,21.09
2022-09-30T16:43:14.762Z,20.76
2022-09-30T16:45:44.096Z,19.45
2022-09-30T16:48:15.823Z,18.39
2022-09-30T16:51:04.758Z,18.39
2022-09-30T16:53:32.853Z,20.59
2022-09-30T16:56:01.534Z,21.41
2022-09-30T16:58:31.349Z,20.29
2022-09-30T17:01:02.216Z,19.08
2022-09-30T17:03:36.913Z,18.14
2022-09-30T17:06:10.308Z,18.52
2022-09-30T17:08:38.482Z,20.59
2022-09-30T17:11:06.760Z,20.93
2022-09-30T17:13:36.269Z,19.69
2022-09-30T17:16:04.495Z,18.59
2022-09-30T17:18:32.953Z,18.31
2022-09-30T17:21:01.605Z,20.16
2022-09-30T17:23:31.515Z,21.06
2022-09-30T17:25:59.590Z,19.91
2022-09-30T17:28:27.868Z,18.71
2022-09-30T17:30:56.145Z,18.30
2022-09-30T17:33:24.317Z,19.98
2022-09-30T17:36:04.997Z,20.87
2022-09-30T17:38:34.874Z,19.77
2022-09-30T17:41:23.678Z,18.66
2022-09-30T17:43:51.933Z,17.93
2022-09-30T17:46:23.608Z,19.46
2022-09-30T17:48:55.978Z,20.97
2022-09-30T17:51:24.537Z,20.06
2022-09-30T17:53:53.138Z,18.86
2022-09-30T17:56:24.985Z,18.00
2022-09-30T17:58:53.570Z,18.99
2022-09-30T18:01:23.110Z,20.74
2022-09-30T18:03:53.908Z,20.47
2022-09-30T18:06:23.288Z,19.26
2022-09-30T18:09:00.561Z,18.31
2022-09-30T18:11:31.800Z,18.44
2022-09-30T18:14:04.658Z,20.31
2022-09-30T18:16:34.433Z,20.76
2022-09-30T18:19:06.541Z,19.61
2022-09-30T18:21:37.429Z,18.54
2022-09-30T18:24:08.366Z,17.76
2022-09-30T18:26:38.255Z,18.67
2022-09-30T18:29:10.481Z,20.39
2022-09-30T18:31:41.886Z,20.45
2022-09-30T18:34:13.648Z,19.26
2022-09-30T18:36:42.680Z,18.24
2022-09-30T18:39:11.650Z,18.10
2022-09-30T18:41:45.810Z,20.04
2022-09-30T18:44:15.657Z,20.82
2022-09-30T18:46:44.505Z,19.71
2022-09-30T18:49:19.392Z,18.60
2022-09-30T18:51:49.232Z,17.80
2022-09-30T18:54:18.293Z,18.62
2022-09-30T18:56:48.045Z,20.41
2022-09-30T18:59:19.500Z,20.32
2022-09-30T19:01:54.656Z,19.14
2022-09-30T19:04:24.753Z,18.18
2022-09-30T19:06:53.763Z,18.19
2022-09-30T19:09:27.631Z,20.01
2022-09-30T19:11:56.593Z,20.63
2022-09-30T19:14:26.484Z,19.55
2022-09-30T19:16:57.144Z,18.50
2022-09-30T19:19:27.940Z,17.83
2022-09-30T19:22:02.230Z,19.12
2022-09-30T19:24:33.370Z,20.78
2022-09-30T19:27:06.311Z,20.17
2022-09-30T19:29:38.634Z,18.97
2022-09-30T19:32:09.930Z,18.05
2022-09-30T19:34:40.109Z,18.08
2022-09-30T19:37:19.528Z,19.94
2022-09-30T19:39:55.825Z,20.74
2022-09-30T19:42:25.480Z,19.63
2022-09-30T19:44:55.957Z,18.52
2022-09-30T19:47:25.346Z,17.73
2022-09-30T19:49:53.604Z,18.45
2022-09-30T19:52:26.694Z,20.38
2022-09-30T19:54:58.347Z,20.46
2022-09-30T19:57:36.073Z,19.21
2022-09-30T20:00:11.642Z,18.23
2022-09-30T20:02:40.697Z,18.08
2022-09-30T20:05:12.704Z,20.13
2022-09-30T20:07:41.467Z,20.90
2022-09-30T20:10:10.328Z,19.74
2022-09-30T20:12:39.217Z,18.70
2022-09-30T20:15:28.797Z,17.94
2022-09-30T20:17:56.967Z,19.25
2022-09-30T20:20:38.557Z,20.91
2022-09-30T20:25:51.902Z,18.81
2022-09-30T20:28:22.492Z,17.97
2022-09-30T20:30:50.913Z,18.63
2022-09-30T20:33:24.717Z,20.73
2022-09-30T20:36:00.709Z,20.73
2022-09-30T20:38:28.949Z,19.49
2022-09-30T20:41:01.910Z,18.53
2022-09-30T20:43:33.387Z,18.45
2022-09-30T20:46:04.813Z,20.58
2022-09-30T20:48:36.972Z,21.05
2022-09-30T20:51:11.527Z,19.84
2022-09-30T20:53:40.016Z,18.74
2022-09-30T20:56:15.716Z,17.94
2022-09-30T20:58:44.519Z,18.52
2022-09-30T21:01:15.323Z,20.75
2022-09-30T21:03:50.319Z,20.89
2022-09-30T21:06:21.255Z,19.60
2022-09-30T21:08:51.168Z,18.56
2022-09-30T21:11:19.972Z,18.34
2022-09-30T21:13:50.998Z,20.25
2022-09-30T21:16:24.984Z,20.92
2022-09-30T21:18:54.040Z,19.81
2022-09-30T21:21:24.874Z,18.78
2022-09-30T21:23:55.615Z,18.09
2022-09-30T21:26:23.746Z,19.52
2022-09-30T21:28:52.124Z,21.16
2022-09-30T21:31:27.795Z,20.39
2022-09-30T21:33:58.714Z,19.18
2022-09-30T21:36:29.035Z,18.31
2022-09-30T21:39:02.545Z,18.55
2022-09-30T21:41:32.939Z,20.48
2022-09-30T21:44:03.386Z,20.68
2022-09-30T21:46:31.765Z,19.51
2022-09-30T21:49:05.374Z,18.52
2022-09-30T21:51:35.491Z,18.48
2022-09-30T21:54:03.966Z,20.37
2022-09-30T21:56:32.140Z,20.85
2022-09-30T21:59:00.318Z,19.75
2022-09-30T22:01:30.481Z,18.73
2022-09-30T22:03:59.631Z,18.51
2022-09-30T22:06:28.848Z,20.14
2022-09-30T22:08:58.640Z,20.87
2022-09-30T22:11:28.043Z,19.86
2022-09-30T22:13:57.932Z,18.81
2022-09-30T22:16:35.149Z,18.07
2022-09-30T22:19:07.618Z,19.38
2022-09-30T22:21:37.745Z,21.00
2022-09-30T22:24:09.395Z,20.20
2022-09-30T22:26:38.070Z,19.04
2022-09-30T22:29:11.269Z,18.18
2022-09-30T22:31:39.899Z,18.73
2022-09-30T22:34:31.787Z,20.79
2022-09-30T22:37:19.003Z,20.54
2022-09-30T22:39:47.078Z,19.20
2022-09-30T22:42:15.248Z,18.32
2022-09-30T22:44:43.320Z,18.38
2022-09-30T22:47:11.906Z,20.45
2022-09-30T22:49:40.582Z,20.94
2022-09-30T22:52:09.455Z,19.77
2022-09-30T22:54:37.756Z,18.72
2022-09-30T22:57:09.326Z,17.96
2022-09-30T22:59:37.585Z,18.71
2022-09-30T23:02:06.218Z,20.75
2022-09-30T23:04:34.350Z,20.63
2022-09-30T23:07:02.413Z,19.42
2022-09-30T23:09:31.410Z,18.46
2022-09-30T23:11:59.682Z,17.75
2022-09-30T23:14:28.369Z,18.47
2022-09-30T23:16:56.809Z,20.60
2022-09-30T23:19:25.073Z,20.71
2022-09-30T23:21:53.793Z,19.49
2022-09-30T23:24:22.007Z,18.48
2022-09-30T23:26:50.672Z,17.77
2022-09-30T23:29:18.866Z,18.74
2022-09-30T23:31:47.084Z,20.74
2022-09-30T23:34:16.899Z,20.44
2022-09-30T23:36:45.003Z,19.21
2022-09-30T23:39:20.321Z,18.24
2022-09-30T23:41:50.362Z,18.14
2022-09-30T23:44:19.219Z,20.22
2022-09-30T23:47:07.599Z,20.84
2022-09-30T23:49:36.158Z,19.56
2022-09-30T23:52:09.237Z,18.54
2022-09-30T23:54:41.698Z,17.77
2022-09-30T23:57:11.138Z,18.61
2022-09-30T23:59:40.047Z,20.67
